sensor_id;sensor_type;location;lat;lon;timestamp;P1;durP1;ratioP1;P2;durP2;ratioP2
70927;SDS011;58587;53.034;18.576;2022-11-20T00:01:35;33.35;;;14.18;;
70927;SDS011;58587;53.034;18.576;2022-11-20T00:04:00;34.53;;;13.70;;
70927;SDS011;58587;53.034;18.576;2022-11-20T00:06:26;34.00;;;13.27;;
70927;SDS011;58587;53.034;18.576;2022-11-20T00:08:53;32.28;;;14.13;;
70927;SDS011;58587;53.034;18.576;2022-11-20T00:11:22;35.88;;;14.23;;
70927;SDS011;58587;53.034;18.576;2022-11-20T00:13:49;36.20;;;14.07;;
70927;SDS011;58587;53.034;18.576;2022-11-20T00:16:17;30.40;;;13.10;;
70927;SDS011;58587;53.034;18.576;2022-11-20T00:18:44;28.35;;;12.48;;
70927;SDS011;58587;53.034;18.576;2022-11-20T00:21:11;32.42;;;12.57;;
70927;SDS011;58587;53.034;18.576;2022-11-20T00:23:41;33.17;;;13.55;;
70927;SDS011;58587;53.034;18.576;2022-11-20T00:26:08;36.35;;;14.07;;
70927;SDS011;58587;53.034;18.576;2022-11-20T00:28:35;32.20;;;12.87;;
70927;SDS011;58587;53.034;18.576;2022-11-20T00:31:05;36.65;;;14.32;;
70927;SDS011;58587;53.034;18.576;2022-11-20T00:33:32;27.67;;;11.07;;
70927;SDS011;58587;53.034;18.576;2022-11-20T00:36:02;30.47;;;13.70;;
70927;SDS011;58587;53.034;18.576;2022-11-20T00:38:29;36.67;;;13.93;;
70927;SDS011;58587;53.034;18.576;2022-11-20T00:40:56;36.88;;;14.27;;
70927;SDS011;58587;53.034;18.576;2022-11-20T00:43:22;33.58;;;13.52;;
70927;SDS011;58587;53.034;18.576;2022-11-20T00:45:48;34.17;;;13.33;;
70927;SDS011;58587;53.034;18.576;2022-11-20T00:48:14;32.85;;;13.65;;
70927;SDS011;58587;53.034;18.576;2022-11-20T00:50:40;36.40;;;14.70;;
70927;SDS011;58587;53.034;18.576;2022-11-20T00:53:06;36.33;;;13.83;;
70927;SDS011;58587;53.034;18.576;2022-11-20T00:55:31;36.20;;;15.10;;
70927;SDS011;58587;53.034;18.576;2022-11-20T00:57:57;31.23;;;13.50;;
70927;SDS011;58587;53.034;18.576;2022-11-20T01:00:22;31.97;;;12.67;;
70927;SDS011;58587;53.034;18.576;2022-11-20T01:02:47;39.13;;;14.27;;
70927;SDS011;58587;53.034;18.576;2022-11-20T01:05:13;33.23;;;13.93;;
70927;SDS011;58587;53.034;18.576;2022-11-20T01:07:38;37.37;;;14.63;;
70927;SDS011;58587;53.034;18.576;2022-11-20T01:10:04;37.58;;;14.52;;
70927;SDS011;58587;53.034;18.576;2022-11-20T01:12:29;36.30;;;14.10;;
70927;SDS011;58587;53.034;18.576;2022-11-20T01:14:55;32.63;;;13.93;;
70927;SDS011;58587;53.034;18.576;2022-11-20T01:17:20;34.80;;;15.00;;
70927;SDS011;58587;53.034;18.576;2022-11-20T01:19:48;32.53;;;14.15;;
70927;SDS011;58587;53.034;18.576;2022-11-20T01:22:14;34.80;;;14.30;;
70927;SDS011;58587;53.034;18.576;2022-11-20T01:24:40;35.80;;;14.27;;
70927;SDS011;58587;53.034;18.576;2022-11-20T01:27:05;35.23;;;13.67;;
70927;SDS011;58587;53.034;18.576;2022-11-20T01:29:30;36.80;;;14.10;;
70927;SDS011;58587;53.034;18.576;2022-11-20T01:31:56;35.30;;;13.20;;
70927;SDS011;58587;53.034;18.576;2022-11-20T01:34:21;38.90;;;14.23;;
70927;SDS011;58587;53.034;18.576;2022-11-20T01:36:47;34.67;;;13.68;;
70927;SDS011;58587;53.034;18.576;2022-11-20T01:39:15;33.63;;;13.38;;
70927;SDS011;58587;53.034;18.576;2022-11-20T01:41:46;35.08;;;14.20;;
70927;SDS011;58587;53.034;18.576;2022-11-20T01:47:25;34.63;;;13.80;;
70927;SDS011;58587;53.034;18.576;2022-11-20T01:52:30;31.63;;;13.23;;
70927;SDS011;58587;53.034;18.576;2022-11-20T01:55:03;35.25;;;13.75;;
70927;SDS011;58587;53.034;18.576;2022-11-20T01:57:33;35.97;;;12.77;;
70927;SDS011;58587;53.034;18.576;2022-11-20T02:00:05;34.83;;;14.18;;
70927;SDS011;58587;53.034;18.576;2022-11-20T02:02:33;28.45;;;12.48;;
70927;SDS011;58587;53.034;18.576;2022-11-20T02:05:00;38.25;;;13.43;;
70927;SDS011;58587;53.034;18.576;2022-11-20T10:56:14;68.27;;;28.17;;
70927;SDS011;58587;53.034;18.576;2022-11-20T10:58:46;70.38;;;30.58;;
70927;SDS011;58587;53.034;18.576;2022-11-20T11:01:23;64.68;;;27.08;;
70927;SDS011;58587;53.034;18.576;2022-11-20T11:03:49;63.03;;;27.17;;
70927;SDS011;58587;53.034;18.576;2022-11-20T11:08:47;68.53;;;30.35;;
70927;SDS011;58587;53.034;18.576;2022-11-20T11:11:28;96.15;;;43.92;;
70927;SDS011;58587;53.034;18.576;2022-11-20T11:14:08;74.53;;;33.27;;
70927;SDS011;58587;53.034;18.576;2022-11-20T11:16:40;79.88;;;36.05;;
70927;SDS011;58587;53.034;18.576;2022-11-20T11:19:15;76.53;;;36.65;;
70927;SDS011;58587;53.034;18.576;2022-11-20T11:22:16;216.53;;;78.07;;
70927;SDS011;58587;53.034;18.576;2022-11-20T11:27:13;111.25;;;38.97;;
70927;SDS011;58587;53.034;18.576;2022-11-20T11:29:42;77.40;;;28.85;;
70927;SDS011;58587;53.034;18.576;2022-11-20T11:32:40;139.23;;;40.60;;
70927;SDS011;58587;53.034;18.576;2022-11-20T11:35:00;159.65;;;66.30;;
70927;SDS011;58587;53.034;18.576;2022-11-20T11:37:28;113.17;;;56.20;;
70927;SDS011;58587;53.034;18.576;2022-11-20T11:39:59;153.13;;;83.97;;
70927;SDS011;58587;53.034;18.576;2022-11-20T11:42:24;227.57;;;94.73;;
70927;SDS011;58587;53.034;18.576;2022-11-20T11:44:50;218.20;;;61.85;;
70927;SDS011;58587;53.034;18.576;2022-11-20T11:55:29;179.52;;;48.78;;
70927;SDS011;58587;53.034;18.576;2022-11-20T12:00:40;220.93;;;83.43;;
70927;SDS011;58587;53.034;18.576;2022-11-20T12:03:34;202.90;;;96.50;;
70927;SDS011;58587;53.034;18.576;2022-11-20T12:06:01;78.80;;;37.63;;
70927;SDS011;58587;53.034;18.576;2022-11-20T12:08:55;99.72;;;36.92;;
70927;SDS011;58587;53.034;18.576;2022-11-20T12:16:40;73.17;;;26.63;;
70927;SDS011;58587;53.034;18.576;2022-11-20T12:19:12;88.93;;;32.45;;
70927;SDS011;58587;53.034;18.576;2022-11-20T12:24:31;103.30;;;34.33;;
70927;SDS011;58587;53.034;18.576;2022-11-20T12:30:10;121.40;;;44.55;;
70927;SDS011;58587;53.034;18.576;2022-11-20T12:44:04;262.55;;;86.18;;
70927;SDS011;58587;53.034;18.576;2022-11-20T12:50:29;422.63;;;109.60;;
70927;SDS011;58587;53.034;18.576;2022-11-20T13:04:47;127.93;;;41.10;;
70927;SDS011;58587;53.034;18.576;2022-11-20T13:07:07;134.50;;;60.53;;
70927;SDS011;58587;53.034;18.576;2022-11-20T13:09:38;69.18;;;28.05;;
70927;SDS011;58587;53.034;18.576;2022-11-20T13:12:10;64.60;;;29.25;;
70927;SDS011;58587;53.034;18.576;2022-11-20T13:17:16;189.38;;;52.63;;
70927;SDS011;58587;53.034;18.576;2022-11-20T13:19:52;102.50;;;37.60;;
70927;SDS011;58587;53.034;18.576;2022-11-20T13:22:26;121.40;;;37.80;;
70927;SDS011;58587;53.034;18.576;2022-11-20T13:24:53;115.90;;;38.58;;
70927;SDS011;58587;53.034;18.576;2022-11-20T13:27:20;87.43;;;31.23;;
70927;SDS011;58587;53.034;18.576;2022-11-20T13:32:53;94.40;;;34.03;;
70927;SDS011;58587;53.034;18.576;2022-11-20T13:35:28;72.25;;;36.35;;
70927;SDS011;58587;53.034;18.576;2022-11-20T13:40:31;54.35;;;23.42;;
70927;SDS011;58587;53.034;18.576;2022-11-20T13:43:02;63.75;;;30.15;;
70927;SDS011;58587;53.034;18.576;2022-11-20T13:45:40;67.53;;;30.07;;
70927;SDS011;58587;53.034;18.576;2022-11-20T13:48:16;97.30;;;44.65;;
70927;SDS011;58587;53.034;18.576;2022-11-20T13:50:48;78.57;;;31.93;;
70927;SDS011;58587;53.034;18.576;2022-11-20T13:53:47;115.03;;;40.42;;
70927;SDS011;58587;53.034;18.576;2022-11-20T14:02:13;71.25;;;30.02;;
70927;SDS011;58587;53.034;18.576;2022-11-20T14:04:42;58.60;;;22.67;;
70927;SDS011;58587;53.034;18.576;2022-11-20T14:07:10;52.28;;;22.83;;
70927;SDS011;58587;53.034;18.576;2022-11-20T14:09:36;47.75;;;21.02;;
70927;SDS011;58587;53.034;18.576;2022-11-20T14:12:02;98.43;;;50.83;;
70927;SDS011;58587;53.034;18.576;2022-11-20T14:14:29;108.72;;;57.80;;
70927;SDS011;58587;53.034;18.576;2022-11-20T14:17:09;81.03;;;41.78;;
70927;SDS011;58587;53.034;18.576;2022-11-20T14:19:41;141.00;;;45.83;;
70927;SDS011;58587;53.034;18.576;2022-11-20T14:22:14;83.70;;;29.40;;
70927;SDS011;58587;53.034;18.576;2022-11-20T14:24:48;62.60;;;24.20;;
70927;SDS011;58587;53.034;18.576;2022-11-20T14:27:25;67.72;;;24.38;;
70927;SDS011;58587;53.034;18.576;2022-11-20T14:29:50;58.33;;;22.23;;
70927;SDS011;58587;53.034;18.576;2022-11-20T14:32:19;79.53;;;27.15;;
70927;SDS011;58587;53.034;18.576;2022-11-20T14:34:50;54.20;;;22.02;;
70927;SDS011;58587;53.034;18.576;2022-11-20T14:37:25;51.00;;;24.10;;
70927;SDS011;58587;53.034;18.576;2022-11-20T14:39:53;57.75;;;29.55;;
70927;SDS011;58587;53.034;18.576;2022-11-20T14:42:22;46.70;;;20.67;;
70927;SDS011;58587;53.034;18.576;2022-11-20T14:44:49;47.45;;;21.38;;
70927;SDS011;58587;53.034;18.576;2022-11-20T14:47:20;62.80;;;26.48;;
70927;SDS011;58587;53.034;18.576;2022-11-20T14:49:47;97.15;;;40.58;;
70927;SDS011;58587;53.034;18.576;2022-11-20T14:52:15;83.60;;;39.33;;
70927;SDS011;58587;53.034;18.576;2022-11-20T14:54:46;64.67;;;30.23;;
70927;SDS011;58587;53.034;18.576;2022-11-20T15:02:53;70.47;;;25.65;;
70927;SDS011;58587;53.034;18.576;2022-11-20T15:05:24;71.23;;;28.17;;
70927;SDS011;58587;53.034;18.576;2022-11-20T15:08:03;73.32;;;31.90;;
70927;SDS011;58587;53.034;18.576;2022-11-20T15:10:33;66.35;;;28.00;;
70927;SDS011;58587;53.034;18.576;2022-11-20T15:13:00;51.23;;;23.13;;
70927;SDS011;58587;53.034;18.576;2022-11-20T15:17:53;54.73;;;23.90;;
70927;SDS011;58587;53.034;18.576;2022-11-20T15:20:19;51.03;;;20.50;;
70927;SDS011;58587;53.034;18.576;2022-11-20T15:22:49;64.38;;;29.52;;
70927;SDS011;58587;53.034;18.576;2022-11-20T15:25:14;53.17;;;24.33;;
70927;SDS011;58587;53.034;18.576;2022-11-20T15:27:41;52.72;;;25.08;;
70927;SDS011;58587;53.034;18.576;2022-11-20T15:30:17;57.10;;;27.10;;
70927;SDS011;58587;53.034;18.576;2022-11-20T15:32:44;49.47;;;23.30;;
70927;SDS011;58587;53.034;18.576;2022-11-20T15:35:11;51.93;;;23.60;;
70927;SDS011;58587;53.034;18.576;2022-11-20T15:37:37;385.60;;;121.78;;
70927;SDS011;58587;53.034;18.576;2022-11-20T15:40:04;173.73;;;57.63;;
70927;SDS011;58587;53.034;18.576;2022-11-20T15:42:33;97.80;;;36.08;;
70927;SDS011;58587;53.034;18.576;2022-11-20T15:44:59;74.97;;;31.73;;
70927;SDS011;58587;53.034;18.576;2022-11-20T15:47:28;85.63;;;39.53;;
70927;SDS011;58587;53.034;18.576;2022-11-20T15:49:58;66.82;;;28.88;;
70927;SDS011;58587;53.034;18.576;2022-11-20T15:52:23;52.90;;;23.92;;
70927;SDS011;58587;53.034;18.576;2022-11-20T15:54:49;57.75;;;25.85;;
70927;SDS011;58587;53.034;18.576;2022-11-20T15:57:14;86.53;;;42.80;;
70927;SDS011;58587;53.034;18.576;2022-11-20T15:59:40;55.20;;;25.50;;
70927;SDS011;58587;53.034;18.576;2022-11-20T16:02:13;49.50;;;20.63;;
70927;SDS011;58587;53.034;18.576;2022-11-20T16:04:39;46.50;;;22.00;;
70927;SDS011;58587;53.034;18.576;2022-11-20T16:07:05;52.58;;;22.50;;
70927;SDS011;58587;53.034;18.576;2022-11-20T16:09:31;62.20;;;28.33;;
70927;SDS011;58587;53.034;18.576;2022-11-20T16:11:57;67.18;;;31.55;;
70927;SDS011;58587;53.034;18.576;2022-11-20T16:14:26;62.73;;;29.40;;
70927;SDS011;58587;53.034;18.576;2022-11-20T16:17:10;62.20;;;29.83;;
70927;SDS011;58587;53.034;18.576;2022-11-20T16:19:36;59.45;;;25.95;;
70927;SDS011;58587;53.034;18.576;2022-11-20T16:22:01;55.67;;;25.27;;
70927;SDS011;58587;53.034;18.576;2022-11-20T16:24:27;58.53;;;28.43;;
70927;SDS011;58587;53.034;18.576;2022-11-20T16:26:53;63.83;;;29.27;;
70927;SDS011;58587;53.034;18.576;2022-11-20T16:29:18;56.28;;;27.33;;
70927;SDS011;58587;53.034;18.576;2022-11-20T16:31:44;48.25;;;20.77;;
70927;SDS011;58587;53.034;18.576;2022-11-20T16:34:09;62.50;;;27.43;;
70927;SDS011;58587;53.034;18.576;2022-11-20T16:36:35;88.57;;;40.67;;
70927;SDS011;58587;53.034;18.576;2022-11-20T16:39:01;74.67;;;35.23;;
70927;SDS011;58587;53.034;18.576;2022-11-20T16:41:29;67.35;;;30.30;;
70927;SDS011;58587;53.034;18.576;2022-11-20T16:43:56;54.08;;;23.88;;
70927;SDS011;58587;53.034;18.576;2022-11-20T16:46:23;46.10;;;20.30;;
70927;SDS011;58587;53.034;18.576;2022-11-20T16:48:54;68.18;;;33.47;;
70927;SDS011;58587;53.034;18.576;2022-11-20T16:51:22;63.45;;;29.25;;
70927;SDS011;58587;53.034;18.576;2022-11-20T16:53:48;58.80;;;25.10;;
70927;SDS011;58587;53.034;18.576;2022-11-20T16:56:15;52.58;;;21.15;;
70927;SDS011;58587;53.034;18.576;2022-11-20T16:58:43;66.27;;;28.57;;
70927;SDS011;58587;53.034;18.576;2022-11-20T17:01:10;54.92;;;25.73;;
70927;SDS011;58587;53.034;18.576;2022-11-20T17:03:37;55.45;;;25.30;;
70927;SDS011;58587;53.034;18.576;2022-11-20T17:06:13;56.60;;;25.92;;
70927;SDS011;58587;53.034;18.576;2022-11-20T17:08:40;59.40;;;26.58;;
70927;SDS011;58587;53.034;18.576;2022-11-20T17:11:09;59.57;;;26.57;;
70927;SDS011;58587;53.034;18.576;2022-11-20T17:13:36;50.17;;;22.10;;
70927;SDS011;58587;53.034;18.576;2022-11-20T17:16:02;63.05;;;25.52;;
70927;SDS011;58587;53.034;18.576;2022-11-20T17:18:29;42.40;;;18.42;;
70927;SDS011;58587;53.034;18.576;2022-11-20T17:20:55;52.90;;;23.43;;
70927;SDS011;58587;53.034;18.576;2022-11-20T17:23:21;48.83;;;22.20;;
70927;SDS011;58587;53.034;18.576;2022-11-20T17:25:46;48.27;;;22.00;;
70927;SDS011;58587;53.034;18.576;2022-11-20T17:28:12;46.80;;;21.03;;
70927;SDS011;58587;53.034;18.576;2022-11-20T17:30:37;51.83;;;21.40;;
70927;SDS011;58587;53.034;18.576;2022-11-20T17:33:02;51.70;;;22.88;;
70927;SDS011;58587;53.034;18.576;2022-11-20T17:35:28;60.80;;;27.40;;
70927;SDS011;58587;53.034;18.576;2022-11-20T17:37:53;43.50;;;16.80;;
70927;SDS011;58587;53.034;18.576;2022-11-20T17:40:19;37.70;;;18.10;;
70927;SDS011;58587;53.034;18.576;2022-11-20T17:42:44;42.40;;;17.53;;
70927;SDS011;58587;53.034;18.576;2022-11-20T17:45:09;35.07;;;15.57;;
70927;SDS011;58587;53.034;18.576;2022-11-20T17:47:35;38.80;;;15.70;;
70927;SDS011;58587;53.034;18.576;2022-11-20T17:50:03;47.80;;;19.15;;
70927;SDS011;58587;53.034;18.576;2022-11-20T17:52:29;38.83;;;16.50;;
70927;SDS011;58587;53.034;18.576;2022-11-20T17:54:54;41.87;;;17.27;;
70927;SDS011;58587;53.034;18.576;2022-11-20T17:57:22;40.30;;;17.15;;
70927;SDS011;58587;53.034;18.576;2022-11-20T18:00:06;41.47;;;18.98;;
70927;SDS011;58587;53.034;18.576;2022-11-20T18:02:34;42.53;;;19.92;;
70927;SDS011;58587;53.034;18.576;2022-11-20T18:04:59;38.73;;;16.80;;
70927;SDS011;58587;53.034;18.576;2022-11-20T18:07:25;40.57;;;16.27;;
70927;SDS011;58587;53.034;18.576;2022-11-20T18:09:50;43.70;;;17.40;;
70927;SDS011;58587;53.034;18.576;2022-11-20T18:12:15;41.83;;;16.93;;
70927;SDS011;58587;53.034;18.576;2022-11-20T18:14:41;40.72;;;18.55;;
70927;SDS011;58587;53.034;18.576;2022-11-20T18:17:11;39.83;;;16.88;;
70927;SDS011;58587;53.034;18.576;2022-11-20T18:19:39;49.28;;;19.83;;
70927;SDS011;58587;53.034;18.576;2022-11-20T18:22:06;47.55;;;21.13;;
70927;SDS011;58587;53.034;18.576;2022-11-20T18:24:33;78.35;;;36.50;;
70927;SDS011;58587;53.034;18.576;2022-11-20T18:27:03;79.00;;;34.33;;
70927;SDS011;58587;53.034;18.576;2022-11-20T18:29:30;51.53;;;24.45;;
70927;SDS011;58587;53.034;18.576;2022-11-20T18:31:56;35.53;;;17.52;;
70927;SDS011;58587;53.034;18.576;2022-11-20T18:34:22;54.05;;;25.88;;
70927;SDS011;58587;53.034;18.576;2022-11-20T18:36:48;52.57;;;27.00;;
70927;SDS011;58587;53.034;18.576;2022-11-20T18:39:13;66.80;;;30.30;;
70927;SDS011;58587;53.034;18.576;2022-11-20T18:41:39;51.45;;;26.05;;
70927;SDS011;58587;53.034;18.576;2022-11-20T18:44:25;43.53;;;19.85;;
70927;SDS011;58587;53.034;18.576;2022-11-20T18:47:12;53.63;;;24.50;;
70927;SDS011;58587;53.034;18.576;2022-11-20T18:49:40;44.70;;;20.37;;
70927;SDS011;58587;53.034;18.576;2022-11-20T18:52:06;48.53;;;22.40;;
70927;SDS011;58587;53.034;18.576;2022-11-20T18:54:33;55.73;;;24.57;;
70927;SDS011;58587;53.034;18.576;2022-11-20T18:56:59;63.92;;;29.60;;
70927;SDS011;58587;53.034;18.576;2022-11-20T18:59:24;84.57;;;34.47;;
70927;SDS011;58587;53.034;18.576;2022-11-20T19:01:50;85.30;;;32.93;;
70927;SDS011;58587;53.034;18.576;2022-11-20T19:04:15;70.43;;;29.15;;
70927;SDS011;58587;53.034;18.576;2022-11-20T19:06:42;69.17;;;28.00;;
70927;SDS011;58587;53.034;18.576;2022-11-20T19:09:10;70.78;;;28.25;;
70927;SDS011;58587;53.034;18.576;2022-11-20T19:11:37;76.22;;;29.77;;
70927;SDS011;58587;53.034;18.576;2022-11-20T19:14:03;119.63;;;44.25;;
70927;SDS011;58587;53.034;18.576;2022-11-20T19:16:29;140.18;;;50.15;;
70927;SDS011;58587;53.034;18.576;2022-11-20T19:18:57;152.13;;;56.40;;
70927;SDS011;58587;53.034;18.576;2022-11-20T19:21:24;112.85;;;39.33;;
70927;SDS011;58587;53.034;18.576;2022-11-20T19:23:50;112.05;;;43.42;;
70927;SDS011;58587;53.034;18.576;2022-11-20T19:26:17;70.82;;;29.65;;
70927;SDS011;58587;53.034;18.576;2022-11-20T19:28:44;69.40;;;30.00;;
70927;SDS011;58587;53.034;18.576;2022-11-20T19:31:16;96.18;;;38.17;;
70927;SDS011;58587;53.034;18.576;2022-11-20T19:33:43;91.97;;;38.22;;
70927;SDS011;58587;53.034;18.576;2022-11-20T19:36:20;88.45;;;32.47;;
70927;SDS011;58587;53.034;18.576;2022-11-20T19:38:47;78.95;;;28.40;;
70927;SDS011;58587;53.034;18.576;2022-11-20T19:41:15;72.33;;;27.43;;
70927;SDS011;58587;53.034;18.576;2022-11-20T19:43:42;63.63;;;26.25;;
70927;SDS011;58587;53.034;18.576;2022-11-20T19:46:07;82.40;;;32.00;;
70927;SDS011;58587;53.034;18.576;2022-11-20T19:48:34;65.22;;;27.58;;
70927;SDS011;58587;53.034;18.576;2022-11-20T19:51:10;58.20;;;25.17;;
70927;SDS011;58587;53.034;18.576;2022-11-20T19:53:37;55.15;;;23.45;;
70927;SDS011;58587;53.034;18.576;2022-11-20T19:56:03;48.50;;;18.15;;
70927;SDS011;58587;53.034;18.576;2022-11-20T19:58:28;43.42;;;17.35;;
70927;SDS011;58587;53.034;18.576;2022-11-20T20:00:54;44.23;;;18.33;;
70927;SDS011;58587;53.034;18.576;2022-11-20T20:03:20;42.20;;;17.55;;
70927;SDS011;58587;53.034;18.576;2022-11-20T20:05:45;48.70;;;20.77;;
70927;SDS011;58587;53.034;18.576;2022-11-20T20:08:11;66.37;;;24.20;;
70927;SDS011;58587;53.034;18.576;2022-11-20T20:10:37;71.32;;;26.55;;
70927;SDS011;58587;53.034;18.576;2022-11-20T20:13:02;63.93;;;22.90;;
70927;SDS011;58587;53.034;18.576;2022-11-20T20:15:28;57.97;;;23.13;;
70927;SDS011;58587;53.034;18.576;2022-11-20T20:17:54;50.78;;;21.17;;
70927;SDS011;58587;53.034;18.576;2022-11-20T20:20:20;43.73;;;18.10;;
70927;SDS011;58587;53.034;18.576;2022-11-20T20:22:45;42.20;;;18.03;;
70927;SDS011;58587;53.034;18.576;2022-11-20T20:25:11;41.87;;;16.53;;
70927;SDS011;58587;53.034;18.576;2022-11-20T20:27:36;35.05;;;14.50;;
70927;SDS011;58587;53.034;18.576;2022-11-20T20:30:02;33.90;;;14.53;;
70927;SDS011;58587;53.034;18.576;2022-11-20T20:32:29;37.35;;;16.85;;
70927;SDS011;58587;53.034;18.576;2022-11-20T20:34:55;34.30;;;14.73;;
70927;SDS011;58587;53.034;18.576;2022-11-20T20:37:20;36.83;;;14.50;;
70927;SDS011;58587;53.034;18.576;2022-11-20T20:39:46;35.20;;;15.50;;
70927;SDS011;58587;53.034;18.576;2022-11-20T20:42:11;43.73;;;17.57;;
70927;SDS011;58587;53.034;18.576;2022-11-20T20:44:37;52.57;;;21.27;;
70927;SDS011;58587;53.034;18.576;2022-11-20T20:47:20;74.50;;;26.15;;
70927;SDS011;58587;53.034;18.576;2022-11-20T20:49:46;69.07;;;23.73;;
70927;SDS011;58587;53.034;18.576;2022-11-20T20:52:11;59.87;;;22.23;;
70927;SDS011;58587;53.034;18.576;2022-11-20T20:54:37;50.53;;;19.80;;
70927;SDS011;58587;53.034;18.576;2022-11-20T20:57:02;43.13;;;17.65;;
70927;SDS011;58587;53.034;18.576;2022-11-20T20:59:28;47.03;;;17.80;;
70927;SDS011;58587;53.034;18.576;2022-11-20T21:01:53;48.90;;;18.67;;
70927;SDS011;58587;53.034;18.576;2022-11-20T21:04:18;54.87;;;19.70;;
70927;SDS011;58587;53.034;18.576;2022-11-20T21:06:44;64.77;;;24.40;;
70927;SDS011;58587;53.034;18.576;2022-11-20T21:09:09;62.37;;;22.40;;
70927;SDS011;58587;53.034;18.576;2022-11-20T21:11:34;52.07;;;21.03;;
70927;SDS011;58587;53.034;18.576;2022-11-20T21:14:00;62.97;;;23.55;;
70927;SDS011;58587;53.034;18.576;2022-11-20T21:16:25;57.88;;;21.17;;
70927;SDS011;58587;53.034;18.576;2022-11-20T21:18:50;67.83;;;22.70;;
70927;SDS011;58587;53.034;18.576;2022-11-20T21:21:16;83.93;;;29.10;;
70927;SDS011;58587;53.034;18.576;2022-11-20T21:24:01;96.38;;;30.60;;
70927;SDS011;58587;53.034;18.576;2022-11-20T21:26:27;90.80;;;28.70;;
70927;SDS011;58587;53.034;18.576;2022-11-20T21:28:53;72.70;;;25.87;;
70927;SDS011;58587;53.034;18.576;2022-11-20T21:31:21;60.63;;;22.05;;
70927;SDS011;58587;53.034;18.576;2022-11-20T21:33:49;83.40;;;29.30;;
70927;SDS011;58587;53.034;18.576;2022-11-20T21:36:20;79.10;;;27.87;;
70927;SDS011;58587;53.034;18.576;2022-11-20T21:38:47;82.07;;;30.45;;
70927;SDS011;58587;53.034;18.576;2022-11-20T21:41:15;70.05;;;26.30;;
70927;SDS011;58587;53.034;18.576;2022-11-20T21:43:40;75.97;;;23.23;;
70927;SDS011;58587;53.034;18.576;2022-11-20T21:46:13;71.72;;;23.55;;
70927;SDS011;58587;53.034;18.576;2022-11-20T21:48:40;73.25;;;22.83;;
70927;SDS011;58587;53.034;18.576;2022-11-20T21:51:07;65.55;;;21.63;;
70927;SDS011;58587;53.034;18.576;2022-11-20T21:53:35;64.97;;;21.53;;
70927;SDS011;58587;53.034;18.576;2022-11-20T21:56:00;59.08;;;19.98;;
70927;SDS011;58587;53.034;18.576;2022-11-20T21:58:28;51.03;;;18.60;;
70927;SDS011;58587;53.034;18.576;2022-11-20T22:00:54;55.33;;;20.13;;
70927;SDS011;58587;53.034;18.576;2022-11-20T22:03:20;60.35;;;22.13;;
70927;SDS011;58587;53.034;18.576;2022-11-20T22:05:52;69.18;;;24.20;;
70927;SDS011;58587;53.034;18.576;2022-11-20T22:08:22;72.55;;;24.80;;
70927;SDS011;58587;53.034;18.576;2022-11-20T22:13:24;87.97;;;28.55;;
70927;SDS011;58587;53.034;18.576;2022-11-20T22:16:09;67.00;;;25.10;;
70927;SDS011;58587;53.034;18.576;2022-11-20T22:18:35;78.47;;;27.42;;
70927;SDS011;58587;53.034;18.576;2022-11-20T22:21:05;96.28;;;30.90;;
70927;SDS011;58587;53.034;18.576;2022-11-20T22:23:31;93.27;;;29.93;;
70927;SDS011;58587;53.034;18.576;2022-11-20T22:26:04;92.20;;;30.27;;
70927;SDS011;58587;53.034;18.576;2022-11-20T22:28:34;84.72;;;30.50;;
70927;SDS011;58587;53.034;18.576;2022-11-20T22:31:00;83.72;;;29.08;;
70927;SDS011;58587;53.034;18.576;2022-11-20T22:33:27;82.27;;;29.57;;
70927;SDS011;58587;53.034;18.576;2022-11-20T22:38:30;88.22;;;30.92;;
70927;SDS011;58587;53.034;18.576;2022-11-20T22:43:38;83.05;;;29.33;;
70927;SDS011;58587;53.034;18.576;2022-11-20T22:48:33;88.38;;;29.58;;
70927;SDS011;58587;53.034;18.576;2022-11-20T22:51:04;98.45;;;33.55;;
70927;SDS011;58587;53.034;18.576;2022-11-20T22:53:31;110.50;;;37.80;;
70927;SDS011;58587;53.034;18.576;2022-11-20T22:55:57;126.00;;;39.13;;
70927;SDS011;58587;53.034;18.576;2022-11-20T22:58:23;136.80;;;42.80;;
70927;SDS011;58587;53.034;18.576;2022-11-20T23:00:48;140.80;;;43.00;;
70927;SDS011;58587;53.034;18.576;2022-11-20T23:03:14;172.80;;;48.25;;
70927;SDS011;58587;53.034;18.576;2022-11-20T23:05:39;163.77;;;44.57;;
70927;SDS011;58587;53.034;18.576;2022-11-20T23:08:04;158.43;;;45.17;;
70927;SDS011;58587;53.034;18.576;2022-11-20T23:10:30;163.20;;;43.37;;
70927;SDS011;58587;53.034;18.576;2022-11-20T23:12:55;163.57;;;43.30;;
